createdAt,value
2022-10-24T00:01:13.821Z,5.30
2022-10-24T00:03:41.155Z,5.30
2022-10-24T00:06:09.364Z,5.30
2022-10-24T00:08:36.722Z,5.30
2022-10-24T00:11:12.722Z,5.20
2022-10-24T00:13:40.759Z,5.20
2022-10-24T00:16:07.864Z,5.20
2022-10-24T00:18:34.819Z,5.10
2022-10-24T00:21:02.024Z,5.10
2022-10-24T00:23:28.810Z,5.10
2022-10-24T00:25:55.751Z,5.10
2022-10-24T00:28:22.598Z,5.20
2022-10-24T00:30:52.961Z,5.20
2022-10-24T00:33:20.066Z,5.20
2022-10-24T00:35:47.040Z,5.10
2022-10-24T00:38:13.986Z,5.20
2022-10-24T00:40:41.665Z,5.20
2022-10-24T00:43:21.702Z,5.20
2022-10-24T00:45:55.180Z,5.20
2022-10-24T00:48:36.102Z,5.20
2022-10-24T00:51:08.089Z,5.20
2022-10-24T00:53:42.072Z,5.20
2022-10-24T00:56:11.262Z,5.20
2022-10-24T00:58:41.439Z,5.30
2022-10-24T01:01:09.237Z,5.30
2022-10-24T01:03:36.654Z,5.30
2022-10-24T01:06:16.545Z,5.40
2022-10-24T01:09:14.698Z,5.30
2022-10-24T01:12:03.096Z,5.30
2022-10-24T01:14:41.747Z,5.40
2022-10-24T01:17:40.660Z,5.40
2022-10-24T01:20:26.023Z,5.40
2022-10-24T01:23:19.230Z,5.30
2022-10-24T01:26:04.181Z,5.30
2022-10-24T01:28:38.963Z,5.30
2022-10-24T01:31:11.377Z,5.20
2022-10-24T01:33:43.704Z,5.20
2022-10-24T01:36:16.432Z,5.20
2022-10-24T01:38:54.340Z,5.20
2022-10-24T01:41:24.094Z,5.20
2022-10-24T01:44:16.340Z,5.20
2022-10-24T01:46:50.816Z,5.20
2022-10-24T01:49:21.247Z,5.20
2022-10-24T01:51:52.449Z,5.20
2022-10-24T01:54:19.702Z,5.20
2022-10-24T01:56:46.627Z,5.20
2022-10-24T01:59:28.535Z,5.20
2022-10-24T02:02:36.631Z,5.20
2022-10-24T02:05:21.530Z,5.20
2022-10-24T02:07:52.637Z,5.20
2022-10-24T02:10:26.320Z,5.30
2022-10-24T02:13:10.923Z,5.30
2022-10-24T02:15:44.343Z,5.30
2022-10-24T02:18:11.939Z,5.30
2022-10-24T02:21:05.001Z,5.30
2022-10-24T02:23:43.452Z,5.20
2022-10-24T02:26:17.361Z,5.20
2022-10-24T02:28:47.383Z,5.10
2022-10-24T02:31:26.619Z,5.10
2022-10-24T02:33:55.098Z,5.00
2022-10-24T02:36:27.781Z,5.10
2022-10-24T02:38:56.460Z,5.00
2022-10-24T02:41:28.612Z,5.00
2022-10-24T02:43:57.319Z,5.00
2022-10-24T02:46:25.879Z,4.90
2022-10-24T02:48:58.231Z,4.90
2022-10-24T02:51:29.203Z,4.90
2022-10-24T02:53:59.412Z,4.90
2022-10-24T02:56:29.394Z,4.90
2022-10-24T02:58:56.412Z,4.90
2022-10-24T03:01:23.611Z,4.80
2022-10-24T03:03:50.641Z,4.90
2022-10-24T03:06:17.790Z,4.80
2022-10-24T03:08:44.648Z,4.90
2022-10-24T03:11:12.051Z,4.80
2022-10-24T03:13:38.927Z,4.80
2022-10-24T03:16:07.880Z,4.90
2022-10-24T03:18:37.420Z,4.90
2022-10-24T03:21:04.335Z,4.80
2022-10-24T03:23:31.202Z,4.90
2022-10-24T03:25:59.229Z,4.90
2022-10-24T03:28:26.059Z,4.90
2022-10-24T03:30:53.334Z,4.90
2022-10-24T03:33:20.397Z,4.90
2022-10-24T03:35:47.203Z,5.00
2022-10-24T03:38:14.010Z,4.90
2022-10-24T03:40:41.821Z,5.00
2022-10-24T03:43:09.059Z,5.00
2022-10-24T03:45:37.505Z,5.00
2022-10-24T03:48:05.750Z,5.10
2022-10-24T03:50:32.532Z,5.10
2022-10-24T03:53:00.323Z,5.10
2022-10-24T03:55:28.829Z,5.10
2022-10-24T03:57:55.784Z,5.00
2022-10-24T04:00:23.062Z,5.00
2022-10-24T04:02:52.638Z,5.00
2022-10-24T04:05:19.454Z,5.10
2022-10-24T04:07:46.661Z,5.00
2022-10-24T04:10:13.990Z,5.10
2022-10-24T04:12:40.847Z,5.00
2022-10-24T04:15:07.969Z,5.00
2022-10-24T04:17:34.880Z,5.00
2022-10-24T04:20:01.810Z,5.00
2022-10-24T04:22:28.705Z,5.00
2022-10-24T04:24:55.894Z,5.00
2022-10-24T04:27:23.143Z,4.90
2022-10-24T04:29:49.932Z,4.90
2022-10-24T04:32:16.775Z,4.90
2022-10-24T04:34:43.541Z,4.90
2022-10-24T04:37:10.401Z,4.90
2022-10-24T04:39:37.344Z,4.90
2022-10-24T04:42:04.326Z,5.00
2022-10-24T04:44:31.305Z,5.00
2022-10-24T04:46:58.188Z,5.10
2022-10-24T04:49:24.996Z,5.10
2022-10-24T04:51:51.795Z,5.10
2022-10-24T04:54:18.670Z,5.10
2022-10-24T04:56:45.465Z,5.10
2022-10-24T04:59:12.286Z,5.10
2022-10-24T05:01:39.259Z,5.00
2022-10-24T05:04:06.176Z,5.10
2022-10-24T05:06:33.037Z,5.00
2022-10-24T05:08:59.971Z,5.10
2022-10-24T05:11:26.817Z,5.00
2022-10-24T05:13:53.795Z,5.00
2022-10-24T05:16:20.686Z,5.00
2022-10-24T05:18:47.564Z,5.00
2022-10-24T05:21:14.455Z,5.00
2022-10-24T05:23:41.485Z,5.00
2022-10-24T05:26:08.337Z,5.00
2022-10-24T05:28:35.280Z,5.00
2022-10-24T05:31:02.335Z,5.00
2022-10-24T05:33:29.376Z,5.00
2022-10-24T05:35:56.250Z,4.90
2022-10-24T05:38:23.364Z,4.90
2022-10-24T05:40:51.469Z,5.00
2022-10-24T05:43:18.404Z,5.00
2022-10-24T05:45:47.734Z,5.00
2022-10-24T05:48:14.567Z,5.00
2022-10-24T05:50:41.850Z,5.00
2022-10-24T05:53:09.022Z,5.00
2022-10-24T05:55:36.692Z,5.00
2022-10-24T05:58:04.013Z,5.00
2022-10-24T06:00:33.885Z,5.00
2022-10-24T06:03:01.817Z,5.00
2022-10-24T06:05:28.711Z,5.00
2022-10-24T06:07:55.641Z,5.10
2022-10-24T06:10:22.690Z,5.00
2022-10-24T06:12:49.772Z,5.00
2022-10-24T06:15:16.979Z,5.00
2022-10-24T06:17:43.854Z,5.00
2022-10-24T06:20:11.199Z,5.00
2022-10-24T06:22:38.439Z,5.00
2022-10-24T06:25:05.763Z,5.00
2022-10-24T06:27:32.688Z,5.00
2022-10-24T06:29:59.635Z,5.00
2022-10-24T06:32:26.462Z,5.00
2022-10-24T06:34:53.403Z,5.00
2022-10-24T06:37:20.348Z,5.00
2022-10-24T06:39:47.292Z,5.00
2022-10-24T06:42:14.630Z,5.00
2022-10-24T06:44:41.618Z,5.00
2022-10-24T06:47:08.573Z,5.00
2022-10-24T06:49:35.683Z,5.00
2022-10-24T06:52:02.552Z,5.00
2022-10-24T06:54:30.511Z,5.00
2022-10-24T06:56:57.620Z,5.00
2022-10-24T06:59:24.558Z,5.10
2022-10-24T07:01:51.489Z,5.10
2022-10-24T07:04:18.671Z,5.10
2022-10-24T07:06:45.664Z,5.10
2022-10-24T07:09:15.331Z,5.10
2022-10-24T07:11:43.860Z,5.10
2022-10-24T07:14:12.151Z,5.10
2022-10-24T07:16:39.647Z,5.10
2022-10-24T07:19:07.271Z,5.10
2022-10-24T07:21:34.225Z,5.10
2022-10-24T07:24:01.654Z,5.10
2022-10-24T07:26:29.702Z,5.20
2022-10-24T07:29:04.081Z,5.10
2022-10-24T07:31:34.303Z,5.20
2022-10-24T07:34:03.269Z,5.20
2022-10-24T07:36:33.362Z,5.20
2022-10-24T07:39:01.154Z,5.20
2022-10-24T07:41:30.629Z,5.20
2022-10-24T07:43:59.657Z,5.20
2022-10-24T07:46:27.235Z,5.20
2022-10-24T07:48:54.583Z,5.20
2022-10-24T07:51:22.054Z,5.20
2022-10-24T07:53:49.695Z,5.20
2022-10-24T07:56:17.566Z,5.20
2022-10-24T07:58:45.617Z,5.20
2022-10-24T08:01:15.707Z,5.20
2022-10-24T08:03:42.658Z,5.20
2022-10-24T08:06:12.388Z,5.20
2022-10-24T08:08:40.065Z,5.20
2022-10-24T08:11:12.765Z,5.20
2022-10-24T08:13:39.739Z,5.20
2022-10-24T08:16:08.482Z,5.30
2022-10-24T08:18:38.861Z,5.20
2022-10-24T08:21:09.194Z,5.30
2022-10-24T08:23:38.263Z,5.20
2022-10-24T08:26:09.716Z,5.30
2022-10-24T08:28:36.751Z,5.30
2022-10-24T08:31:10.354Z,5.30
2022-10-24T08:33:37.434Z,5.20
2022-10-24T08:36:11.873Z,5.20
2022-10-24T08:38:38.719Z,5.20
2022-10-24T08:41:06.916Z,5.20
2022-10-24T08:43:33.813Z,5.30
2022-10-24T08:46:18.749Z,5.20
2022-10-24T08:48:56.036Z,5.30
2022-10-24T08:51:38.367Z,5.20
2022-10-24T08:54:10.756Z,5.20
2022-10-24T08:56:37.735Z,5.30
2022-10-24T08:59:05.462Z,5.30
2022-10-24T09:01:45.917Z,5.20
2022-10-24T09:04:16.420Z,5.10
2022-10-24T09:06:43.987Z,5.10
2022-10-24T09:09:39.577Z,5.10
2022-10-24T09:12:13.404Z,5.10
2022-10-24T09:14:43.214Z,5.10
2022-10-24T09:17:21.042Z,5.10
2022-10-24T09:19:55.851Z,5.20
2022-10-24T09:22:25.356Z,5.20
2022-10-24T09:25:01.308Z,5.20
2022-10-24T09:27:33.936Z,5.20
2022-10-24T09:30:01.383Z,5.20
2022-10-24T09:32:31.490Z,5.20
2022-10-24T09:35:05.634Z,5.10
2022-10-24T09:37:44.125Z,5.20
2022-10-24T09:40:24.335Z,5.20
2022-10-24T09:42:56.806Z,5.20
2022-10-24T09:45:35.794Z,5.20
2022-10-24T09:48:06.894Z,5.20
2022-10-24T09:50:35.553Z,5.20
2022-10-24T09:53:04.751Z,5.20
2022-10-24T09:55:32.089Z,5.20
2022-10-24T09:58:04.086Z,5.20
2022-10-24T10:00:36.532Z,5.30
2022-10-24T10:03:23.857Z,5.30
2022-10-24T10:05:54.557Z,5.30
2022-10-24T10:08:25.451Z,5.30
2022-10-24T10:11:12.585Z,5.40
2022-10-24T10:13:50.563Z,5.40
2022-10-24T10:16:33.003Z,5.40
2022-10-24T10:19:23.059Z,5.40
2022-10-24T10:22:00.257Z,5.30
2022-10-24T10:24:38.541Z,5.30
2022-10-24T10:27:35.155Z,5.30
2022-10-24T10:30:16.865Z,5.30
2022-10-24T10:33:06.645Z,5.30
2022-10-24T10:36:00.884Z,5.30
2022-10-24T10:38:36.270Z,5.30
2022-10-24T10:41:18.975Z,5.30
2022-10-24T10:44:01.095Z,5.40
2022-10-24T10:47:02.282Z,5.40
2022-10-24T10:49:40.115Z,5.40
2022-10-24T10:52:30.216Z,5.40
2022-10-24T10:55:24.267Z,5.50
2022-10-24T10:58:23.410Z,5.50
2022-10-24T11:01:02.461Z,5.60
2022-10-24T11:03:59.071Z,5.60
2022-10-24T11:06:38.709Z,5.60
2022-10-24T11:09:27.091Z,5.70
2022-10-24T11:11:59.521Z,5.60
2022-10-24T11:14:49.644Z,5.60
2022-10-24T11:17:35.739Z,5.60
2022-10-24T11:20:14.015Z,5.60
2022-10-24T11:22:50.786Z,5.70
2022-10-24T11:25:34.735Z,5.70
2022-10-24T11:28:12.219Z,5.70
2022-10-24T11:30:57.034Z,5.80
2022-10-24T11:33:31.427Z,5.80
2022-10-24T11:36:35.018Z,5.80
2022-10-24T11:39:16.458Z,5.80
2022-10-24T11:42:07.667Z,5.80
2022-10-24T11:44:53.705Z,5.80
2022-10-24T11:47:26.595Z,5.70
2022-10-24T11:50:12.797Z,5.70
2022-10-24T11:52:44.931Z,5.70
2022-10-24T11:55:38.952Z,5.80
2022-10-24T11:58:12.191Z,5.80
2022-10-24T12:01:16.691Z,5.80
2022-10-24T12:04:01.802Z,5.80
2022-10-24T12:06:50.861Z,5.80
2022-10-24T12:09:34.397Z,5.80
2022-10-24T12:12:22.871Z,5.80
2022-10-24T12:14:58.835Z,5.70
2022-10-24T12:17:57.556Z,5.70
2022-10-24T12:20:26.231Z,5.70
2022-10-24T12:22:55.769Z,5.70
2022-10-24T12:25:31.536Z,5.80
2022-10-24T12:28:01.297Z,5.80
2022-10-24T12:30:32.193Z,5.80
2022-10-24T12:33:09.793Z,5.80
2022-10-24T12:35:48.090Z,5.80
2022-10-24T12:38:37.949Z,5.80
2022-10-24T12:41:24.570Z,5.90
2022-10-24T12:43:51.623Z,5.90
2022-10-24T12:46:23.154Z,5.90
2022-10-24T12:48:59.704Z,5.90
2022-10-24T12:51:31.661Z,6.00
2022-10-24T12:54:02.188Z,6.00
2022-10-24T12:56:30.874Z,6.00
2022-10-24T12:59:02.860Z,6.00
2022-10-24T13:01:36.524Z,6.00
2022-10-24T13:04:03.565Z,6.00
2022-10-24T13:06:48.633Z,5.90
2022-10-24T13:09:30.605Z,5.90
2022-10-24T13:12:06.417Z,5.90
2022-10-24T13:15:07.650Z,5.80
2022-10-24T13:18:01.768Z,5.80
2022-10-24T13:20:34.654Z,5.80
2022-10-24T13:23:05.631Z,5.80
2022-10-24T13:25:37.426Z,5.80
2022-10-24T13:28:25.285Z,5.70
2022-10-24T13:30:58.185Z,5.70
2022-10-24T13:33:31.968Z,5.80
2022-10-24T13:36:18.081Z,5.80
2022-10-24T13:39:01.452Z,5.80
2022-10-24T13:41:44.467Z,5.80
2022-10-24T13:44:25.469Z,5.80
2022-10-24T13:47:14.464Z,5.80
2022-10-24T13:49:53.466Z,5.80
2022-10-24T13:52:49.324Z,5.80
2022-10-24T13:55:39.111Z,5.80
2022-10-24T13:58:05.938Z,5.80
2022-10-24T14:00:37.168Z,5.80
2022-10-24T14:03:11.822Z,5.80
2022-10-24T14:05:45.595Z,5.80
2022-10-24T14:08:26.455Z,5.70
2022-10-24T14:10:54.906Z,5.80
2022-10-24T14:13:25.218Z,5.80
2022-10-24T14:15:57.654Z,5.80
2022-10-24T14:18:24.792Z,5.80
2022-10-24T14:21:04.084Z,5.80
2022-10-24T14:23:39.847Z,5.80
2022-10-24T14:26:17.651Z,5.80
2022-10-24T14:28:58.704Z,5.90
2022-10-24T14:31:35.014Z,5.90
2022-10-24T14:34:06.035Z,5.90
2022-10-24T14:36:37.815Z,5.90
2022-10-24T14:39:05.382Z,5.90
2022-10-24T14:41:40.187Z,5.80
2022-10-24T14:44:10.708Z,5.80
2022-10-24T14:46:39.691Z,5.80
2022-10-24T14:49:27.628Z,5.90
2022-10-24T14:52:01.992Z,5.90
2022-10-24T14:54:33.795Z,5.90
2022-10-24T14:57:03.080Z,5.90
2022-10-24T14:59:38.722Z,5.90
2022-10-24T15:02:42.850Z,5.90
2022-10-24T15:05:19.190Z,5.90
2022-10-24T15:08:16.501Z,5.90
2022-10-24T15:10:42.625Z,6.00
2022-10-24T15:13:16.768Z,5.90
2022-10-24T15:15:43.572Z,5.90
2022-10-24T15:18:30.702Z,5.90
2022-10-24T15:21:05.248Z,5.90
2022-10-24T15:23:45.029Z,5.90
2022-10-24T15:26:21.159Z,6.00
2022-10-24T15:29:01.838Z,5.90
2022-10-24T15:31:30.126Z,6.00
2022-10-24T15:33:56.914Z,6.00
2022-10-24T15:36:29.598Z,6.00
2022-10-24T15:39:01.234Z,6.00
2022-10-24T15:41:29.187Z,6.00
2022-10-24T15:43:57.110Z,6.00
2022-10-24T15:46:24.531Z,6.00
2022-10-24T15:48:51.299Z,6.00
2022-10-24T15:51:21.740Z,6.00
2022-10-24T15:53:50.349Z,6.00
2022-10-24T15:56:17.891Z,5.90
2022-10-24T15:58:45.083Z,6.00
2022-10-24T16:01:36.081Z,6.00
2022-10-24T16:04:07.003Z,6.00
2022-10-24T16:06:34.841Z,6.00
2022-10-24T16:09:01.865Z,6.00
2022-10-24T16:11:29.164Z,6.00
2022-10-24T16:13:56.170Z,6.00
2022-10-24T16:16:22.963Z,6.00
2022-10-24T16:18:49.930Z,6.00
2022-10-24T16:21:19.684Z,6.00
2022-10-24T16:23:47.068Z,6.00
2022-10-24T16:26:14.647Z,6.00
2022-10-24T16:28:41.713Z,6.00
2022-10-24T16:31:08.663Z,6.00
2022-10-24T16:33:35.458Z,6.00
2022-10-24T16:36:02.482Z,6.00
2022-10-24T16:38:31.559Z,6.10
2022-10-24T16:40:58.453Z,6.10
2022-10-24T16:43:25.371Z,6.10
2022-10-24T16:46:02.875Z,6.10
2022-10-24T16:48:30.218Z,6.00
2022-10-24T16:50:57.060Z,6.10
2022-10-24T16:53:24.125Z,6.10
2022-10-24T16:55:56.361Z,6.10
2022-10-24T16:58:23.315Z,6.10
2022-10-24T17:00:50.205Z,6.10
2022-10-24T17:03:17.200Z,6.10
2022-10-24T17:08:13.503Z,6.00
2022-10-24T17:10:40.388Z,6.10
2022-10-24T17:13:07.662Z,6.10
2022-10-24T17:15:34.731Z,6.10
2022-10-24T17:18:01.672Z,6.10
2022-10-24T17:20:28.508Z,6.10
2022-10-24T17:22:55.465Z,6.10
2022-10-24T17:25:25.142Z,6.10
2022-10-24T17:27:53.182Z,6.10
2022-10-24T17:30:29.829Z,6.10
2022-10-24T17:32:57.259Z,6.10
2022-10-24T17:35:25.716Z,6.10
2022-10-24T17:37:55.655Z,6.10
2022-10-24T17:40:27.907Z,6.10
2022-10-24T17:42:55.064Z,6.10
2022-10-24T17:45:24.964Z,6.10
2022-10-24T17:47:52.050Z,6.10
2022-10-24T17:50:19.127Z,6.10
2022-10-24T17:52:50.908Z,6.10
2022-10-24T17:55:44.613Z,6.10
2022-10-24T17:58:10.329Z,6.10
2022-10-24T18:00:37.294Z,6.20
2022-10-24T18:03:04.874Z,6.20
2022-10-24T18:05:37.943Z,6.20
2022-10-24T18:08:07.148Z,6.20
2022-10-24T18:10:34.334Z,6.10
2022-10-24T18:13:01.934Z,6.20
2022-10-24T18:15:28.952Z,6.10
2022-10-24T18:17:55.761Z,6.20
2022-10-24T18:20:22.568Z,6.10
2022-10-24T18:22:49.771Z,6.10
2022-10-24T18:25:20.342Z,6.10
2022-10-24T18:27:50.282Z,6.10
2022-10-24T18:30:17.641Z,6.10
2022-10-24T18:32:45.034Z,6.10
2022-10-24T18:35:12.547Z,6.10
2022-10-24T18:37:39.728Z,6.10
2022-10-24T18:40:08.002Z,6.10
2022-10-24T18:42:43.772Z,6.10
2022-10-24T18:45:19.803Z,6.20
2022-10-24T18:47:47.586Z,6.20
2022-10-24T18:50:16.510Z,6.10
2022-10-24T18:52:49.085Z,6.20
2022-10-24T18:55:21.990Z,6.20
2022-10-24T18:57:50.645Z,6.20
2022-10-24T19:00:20.820Z,6.20
2022-10-24T19:02:50.383Z,6.10
2022-10-24T19:05:22.522Z,6.10
2022-10-24T19:07:51.060Z,6.20
2022-10-24T19:10:24.168Z,6.10
2022-10-24T19:12:51.739Z,6.10
2022-10-24T19:15:19.036Z,6.20
2022-10-24T19:17:47.275Z,6.20
2022-10-24T19:20:15.325Z,6.20
2022-10-24T19:22:42.341Z,6.20
2022-10-24T19:25:09.558Z,6.20
2022-10-24T19:27:36.602Z,6.10
2022-10-24T19:30:05.727Z,6.20
2022-10-24T19:32:33.071Z,6.20
2022-10-24T19:35:00.036Z,6.20
2022-10-24T19:37:27.072Z,6.20
2022-10-24T19:39:54.080Z,6.20
2022-10-24T19:42:21.046Z,6.20
2022-10-24T19:47:21.009Z,6.20
2022-10-24T19:49:49.293Z,6.20
2022-10-24T19:52:16.422Z,6.20
2022-10-24T19:54:43.383Z,6.20
2022-10-24T19:57:11.462Z,6.20
2022-10-24T19:59:38.363Z,6.20
2022-10-24T20:02:05.687Z,6.20
2022-10-24T20:04:33.497Z,6.20
2022-10-24T20:07:00.299Z,6.20
2022-10-24T20:09:27.283Z,6.20
2022-10-24T20:11:54.201Z,6.20
2022-10-24T20:14:24.537Z,6.20
2022-10-24T20:16:51.619Z,6.20
2022-10-24T20:19:18.786Z,6.20
2022-10-24T20:21:45.928Z,6.20
2022-10-24T20:24:13.010Z,6.30
2022-10-24T20:26:39.949Z,6.30
2022-10-24T20:29:06.885Z,6.30
2022-10-24T20:31:38.413Z,6.30
2022-10-24T20:34:09.749Z,6.30
2022-10-24T20:36:42.885Z,6.20
2022-10-24T20:39:10.320Z,6.30
2022-10-24T20:41:38.013Z,6.20
2022-10-24T20:44:06.795Z,6.20
2022-10-24T20:46:34.098Z,6.30
2022-10-24T20:49:01.086Z,6.30
2022-10-24T20:51:28.625Z,6.30
2022-10-24T20:53:55.686Z,6.30
2022-10-24T20:56:25.884Z,6.30
2022-10-24T20:58:54.467Z,6.30
2022-10-24T21:01:26.419Z,6.30
2022-10-24T21:03:54.482Z,6.30
2022-10-24T21:06:29.311Z,6.30
2022-10-24T21:08:58.543Z,6.30
2022-10-24T21:11:28.048Z,6.30
2022-10-24T21:13:56.235Z,6.30
2022-10-24T21:16:24.275Z,6.30
2022-10-24T21:18:51.467Z,6.30
2022-10-24T21:21:19.302Z,6.30
2022-10-24T21:23:53.347Z,6.30
2022-10-24T21:26:21.010Z,6.30
2022-10-24T21:28:48.514Z,6.30
2022-10-24T21:31:18.039Z,6.30
2022-10-24T21:33:45.649Z,6.40
2022-10-24T21:36:14.875Z,6.30
2022-10-24T21:38:45.595Z,6.40
2022-10-24T21:41:12.467Z,6.40
2022-10-24T21:43:41.099Z,6.40
2022-10-24T21:46:12.481Z,6.40
2022-10-24T21:48:40.943Z,6.40
2022-10-24T21:51:14.291Z,6.40
2022-10-24T21:53:51.447Z,6.40
2022-10-24T21:56:24.814Z,6.50
2022-10-24T21:58:56.654Z,6.50
2022-10-24T22:01:27.635Z,6.40
2022-10-24T22:03:55.790Z,6.50
2022-10-24T22:06:23.362Z,6.50
2022-10-24T22:08:51.089Z,6.50
2022-10-24T22:11:20.923Z,6.50
2022-10-24T22:13:48.709Z,6.50
2022-10-24T22:16:17.983Z,6.50
2022-10-24T22:18:45.436Z,6.60
2022-10-24T22:21:25.457Z,6.60
2022-10-24T22:23:52.566Z,6.60
2022-10-24T22:26:19.439Z,6.60
2022-10-24T22:28:46.420Z,6.60
2022-10-24T22:31:14.045Z,6.60
2022-10-24T22:33:42.303Z,6.60
2022-10-24T22:36:27.799Z,6.60
2022-10-24T22:38:55.609Z,6.60
2022-10-24T22:41:23.339Z,6.60
2022-10-24T22:43:50.490Z,6.70
2022-10-24T22:46:26.232Z,6.70
2022-10-24T22:48:57.511Z,6.70
2022-10-24T22:51:24.854Z,6.70
2022-10-24T22:53:52.031Z,6.70
2022-10-24T22:56:33.490Z,6.70
2022-10-24T22:59:01.602Z,6.70
2022-10-24T23:01:53.477Z,6.70
2022-10-24T23:04:25.039Z,6.70
2022-10-24T23:07:04.528Z,6.70
2022-10-24T23:09:31.358Z,6.70
2022-10-24T23:11:58.447Z,6.60
2022-10-24T23:14:25.529Z,6.60
2022-10-24T23:16:59.359Z,6.60
2022-10-24T23:19:28.957Z,6.60
2022-10-24T23:22:18.113Z,6.60
2022-10-24T23:24:45.418Z,6.60
2022-10-24T23:27:12.204Z,6.60
2022-10-24T23:29:44.959Z,6.60
2022-10-24T23:32:19.863Z,6.60
2022-10-24T23:34:47.734Z,6.60
2022-10-24T23:37:39.368Z,6.60
2022-10-24T23:40:27.236Z,6.70
2022-10-24T23:42:54.291Z,6.70
2022-10-24T23:45:27.394Z,6.70
2022-10-24T23:48:13.182Z,6.60
2022-10-24T23:50:46.153Z,6.70
2022-10-24T23:53:38.908Z,6.70
2022-10-24T23:56:06.286Z,6.70
2022-10-24T23:58:33.074Z,6.70
